Time;durP1;ratioP1;P1;durP2;ratioP2;P2;SDS_P1;SDS_P2;PMS_P1;PMS_P2;Temp;Humidity;BMP_temperature;BMP_pressure;BME280_temperature;BME280_humidity;BME280_pressure;Samples;Min_cycle;Max_cycle;Signal;HPM_P1;HPM_P2
2021/04/10 06:00:50;;;;;;;28.35;13.05;;;;;;;6.12;53.80;100241.16;1671586;83;26893;-60
2021/04/10 06:03:18;;;;;;;26.37;14.55;;;;;;;6.19;53.50;100255.62;1707722;83;25824;-60
2021/04/10 06:05:47;;;;;;;25.75;13.13;;;;;;;6.26;53.69;100249.92;1715382;83;25302;-60
2021/04/10 06:08:14;;;;;;;26.63;14.13;;;;;;;6.35;53.71;100249.05;1716000;83;25448;-62
2021/04/10 06:10:42;;;;;;;28.02;14.05;;;;;;;6.44;53.41;100248.45;1715581;83;25368;-61
2021/04/10 06:13:10;;;;;;;23.98;12.70;;;;;;;6.53;53.32;100254.25;1709889;83;26588;-61
2021/04/10 06:19:04;;;;;;;24.18;13.08;;;;;;;6.75;53.04;100264.30;1690166;82;26210;-61
2021/04/10 06:21:31;;;;;;;23.60;13.13;;;;;;;6.93;52.83;100268.95;1688301;83;25739;-61
2021/04/10 06:23:58;;;;;;;24.72;13.38;;;;;;;7.08;52.59;100268.78;1683268;83;25579;-61
2021/04/10 06:26:26;;;;;;;26.40;13.32;;;;;;;7.22;52.16;100272.11;1679090;85;26614;-61
2021/04/10 06:28:53;;;;;;;31.35;15.00;;;;;;;7.39;52.39;100263.05;1661493;85;25588;-60
2021/04/10 06:31:21;;;;;;;22.45;13.38;;;;;;;7.56;51.36;100268.47;1680056;83;25753;-60
2021/04/10 06:34:03;;;;;;;24.52;13.85;;;;;;;7.69;50.98;100266.42;1682341;83;25589;-61
2021/04/10 06:36:40;;;;;;;22.62;13.18;;;;;;;7.88;51.33;100262.94;1679048;83;25457;-61
2021/04/10 06:39:08;;;;;;;23.87;13.78;;;;;;;8.14;50.13;100273.60;1684599;85;26321;-61
2021/04/10 06:41:39;;;;;;;27.40;14.05;;;;;;;8.28;49.87;100281.73;1684269;85;25505;-60
2021/04/10 06:44:08;;;;;;;29.07;14.10;;;;;;;8.45;49.81;100279.88;1684303;85;25517;-60
2021/04/10 06:46:37;;;;;;;25.68;14.10;;;;;;;8.65;50.04;100270.66;1684197;85;26044;-61
2021/04/10 06:49:06;;;;;;;25.85;14.20;;;;;;;8.95;49.35;100273.89;1684528;85;32715;-61
2021/04/10 06:51:38;;;;;;;25.10;14.15;;;;;;;9.15;48.55;100276.76;1684568;85;25685;-61
2021/04/10 06:54:12;;;;;;;26.52;14.15;;;;;;;9.38;47.57;100279.02;1683838;85;25419;-59
2021/04/10 06:56:45;;;;;;;23.52;14.00;;;;;;;9.58;48.15;100272.38;1684479;85;25458;-60
2021/04/10 06:59:30;;;;;;;25.02;14.40;;;;;;;9.83;47.51;100268.89;1683688;85;25274;-60
2021/04/10 07:01:57;;;;;;;26.80;14.20;;;;;;;10.06;47.58;100259.71;1683829;85;25454;-61
2021/04/10 07:04:26;;;;;;;26.73;14.10;;;;;;;10.36;47.30;100258.75;1684543;85;25672;-61
2021/04/10 07:06:53;;;;;;;24.85;14.83;;;;;;;10.65;46.53;100260.20;1684371;85;25450;-61
2021/04/10 07:09:20;;;;;;;28.60;14.38;;;;;;;10.97;47.01;100267.20;1684254;84;25401;-61
2021/04/10 07:11:50;;;;;;;27.15;14.25;;;;;;;11.33;46.47;100264.85;1663370;84;25510;-61
2021/04/10 07:14:18;;;;;;;25.23;14.90;;;;;;;11.53;45.18;100264.04;1690172;83;26106;-61
2021/04/10 07:16:45;;;;;;;24.65;14.33;;;;;;;11.62;43.95;100254.56;1689067;83;25829;-59
2021/04/10 07:19:13;;;;;;;26.60;14.70;;;;;;;11.83;44.71;100253.38;1693685;83;25544;-59
2021/04/10 07:21:41;;;;;;;24.92;14.40;;;;;;;12.12;45.07;100251.41;1689299;83;25555;-60
2021/04/10 07:24:09;;;;;;;24.37;15.10;;;;;;;12.46;44.01;100253.84;1668064;84;25597;-61
2021/04/10 07:26:57;;;;;;;27.80;16.30;;;;;;;12.61;41.53;100260.11;1669436;85;25559;-60
2021/04/10 07:29:40;;;;;;;23.25;13.85;;;;;;;12.71;42.68;100258.98;1680795;83;25712;-61
2021/04/10 07:32:34;;;;;;;29.30;13.78;;;;;;;12.99;43.34;100257.20;1688122;83;25489;-62
2021/04/10 07:35:08;;;;;;;26.35;14.90;;;;;;;13.29;41.55;100262.09;1690273;83;25445;-61
2021/04/10 07:37:49;;;;;;;26.80;14.80;;;;;;;13.20;40.22;100255.34;1700317;83;25321;-63
2021/04/10 07:40:27;;;;;;;25.23;14.30;;;;;;;13.20;41.69;100262.71;1684068;83;25319;-63
2021/04/10 07:43:03;;;;;;;25.88;13.88;;;;;;;13.44;41.49;100261.55;1683951;83;25638;-61
2021/04/10 07:45:35;;;;;;;23.40;14.05;;;;;;;13.43;41.36;100268.13;1682690;83;25517;-62
2021/04/10 07:48:14;;;;;;;25.35;14.33;;;;;;;13.48;41.17;100265.77;1690949;83;25431;-61
2021/04/10 07:50:41;;;;;;;26.93;15.15;;;;;;;13.43;40.64;100273.56;1682918;84;25371;-62
2021/04/10 07:53:28;;;;;;;28.83;15.25;;;;;;;13.36;40.05;100269.19;1693258;83;25588;-61
2021/04/10 07:55:58;;;;;;;24.10;15.50;;;;;;;13.34;40.67;100266.58;1692249;83;26600;-62
2021/04/10 07:58:35;;;;;;;26.10;14.63;;;;;;;13.46;39.57;100273.45;1684514;83;25485;-61
2021/04/10 08:01:07;;;;;;;27.82;14.18;;;;;;;13.65;40.75;100273.02;1683916;83;25563;-61
2021/04/10 08:03:44;;;;;;;25.57;15.75;;;;;;;14.13;39.85;100268.99;1691530;83;25387;-61
2021/04/10 08:06:20;;;;;;;25.10;14.93;;;;;;;14.43;39.64;100277.59;1691009;83;25544;-60
2021/04/10 08:08:56;;;;;;;23.85;13.75;;;;;;;14.69;38.85;100284.16;1690143;83;25860;-62
2021/04/10 08:11:40;;;;;;;26.30;14.80;;;;;;;14.98;38.83;100266.84;1657097;86;25487;-62
2021/04/10 08:14:11;;;;;;;28.87;15.05;;;;;;;14.99;38.46;100269.80;1669235;84;25255;-61
2021/04/10 08:16:45;;;;;;;30.08;14.93;;;;;;;14.96;38.50;100270.48;1695708;84;25422;-61
2021/04/10 08:19:15;;;;;;;22.37;14.07;;;;;;;15.19;37.80;100274.93;1695835;84;25464;-60
2021/04/10 08:21:49;;;;;;;24.82;15.88;;;;;;;15.31;36.89;100267.33;1696066;84;25880;-61
2021/04/10 08:24:25;;;;;;;28.35;14.68;;;;;;;15.36;36.50;100265.73;1695642;84;25489;-62
2021/04/10 08:27:02;;;;;;;23.50;13.98;;;;;;;15.36;36.54;100273.09;1695972;84;25391;-61
2021/04/10 08:29:31;;;;;;;24.23;14.35;;;;;;;15.37;37.11;100277.42;1695299;84;25527;-62
2021/04/10 08:31:59;;;;;;;22.22;14.47;;;;;;;15.61;37.35;100276.59;1695984;84;25270;-63
2021/04/10 08:34:28;;;;;;;22.25;14.23;;;;;;;16.02;37.83;100285.07;1695867;84;26527;-64
2021/04/10 08:37:00;;;;;;;24.57;14.35;;;;;;;16.49;37.00;100285.56;1695897;84;25520;-62
2021/04/10 08:39:38;;;;;;;22.05;13.93;;;;;;;16.59;37.12;100282.33;1695812;84;25528;-62
2021/04/10 08:42:09;;;;;;;22.73;14.43;;;;;;;16.66;37.61;100285.81;1695405;84;25432;-62
2021/04/10 08:44:39;;;;;;;23.55;15.15;;;;;;;16.73;37.38;100286.78;1695623;83;25466;-61
2021/04/10 08:47:08;;;;;;;22.17;14.55;;;;;;;16.92;38.21;100286.11;1695867;84;25714;-61
2021/04/10 08:49:41;;;;;;;26.85;15.53;;;;;;;17.07;37.03;100287.27;1695997;84;25526;-62
2021/04/10 08:52:13;;;;;;;21.25;13.95;;;;;;;17.14;36.31;100285.29;1695502;84;25449;-63
2021/04/10 08:54:42;;;;;;;20.85;13.30;;;;;;;17.43;35.69;100289.48;1695901;84;25478;-62
2021/04/10 08:57:15;;;;;;;;;;;;;;;17.25;36.27;100276.00;1698444;84;25325;-63
2021/04/10 08:59:47;;;;;;;25.12;14.60;;;;;;;17.13;35.54;100287.23;1695759;84;25626;-62
2021/04/10 09:02:19;;;;;;;23.12;14.40;;;;;;;17.07;36.07;100280.44;1695853;84;25485;-62
2021/04/10 09:05:04;;;;;;;24.12;15.13;;;;;;;17.07;35.93;100280.44;1695832;84;25251;-63
2021/04/10 09:07:57;;;;;;;22.02;13.48;;;;;;;17.14;35.91;100276.51;1694563;84;25396;-62
2021/04/10 09:10:30;;;;;;;25.08;13.65;;;;;;;17.19;36.75;100271.36;1695965;84;25266;-63
2021/04/10 09:13:15;;;;;;;22.87;13.18;;;;;;;17.20;35.54;100278.97;1695797;84;25693;-63
2021/04/10 09:15:43;;;;;;;23.25;13.70;;;;;;;17.18;35.36;100288.34;1695524;84;25369;-62
2021/04/10 09:18:14;;;;;;;27.27;15.00;;;;;;;16.98;34.85;100283.94;1695945;84;25492;-64
2021/04/10 09:20:49;;;;;;;24.82;14.10;;;;;;;16.89;34.72;100294.23;1695896;84;25249;-63
2021/04/10 09:23:29;;;;;;;22.37;13.93;;;;;;;17.03;35.51;100293.81;1695605;84;25286;-63
2021/04/10 09:26:10;;;;;;;24.30;13.68;;;;;;;17.03;35.16;100284.25;1695812;84;25738;-63
2021/04/10 09:29:15;;;;;;;23.18;14.13;;;;;;;16.77;34.72;100285.50;1695762;84;25245;-62
2021/04/10 09:31:49;;;;;;;19.77;12.60;;;;;;;16.69;35.55;100291.95;1695894;84;25517;-62
2021/04/10 09:34:50;;;;;;;26.05;13.93;;;;;;;16.70;35.64;100287.50;1695767;84;25361;-63
2021/04/10 09:37:26;;;;;;;23.57;14.23;;;;;;;16.72;34.93;100287.94;1695608;84;25428;-64
2021/04/10 09:40:20;;;;;;;22.58;14.13;;;;;;;16.54;34.25;100283.95;1695816;84;25634;-61
2021/04/10 09:43:03;;;;;;;25.35;14.23;;;;;;;16.20;34.44;100296.48;1578112;90;25442;-67
2021/04/10 09:45:38;;;;;;;22.62;14.40;;;;;;;15.89;34.74;100300.45;1849364;76;25143;-63
2021/04/10 09:48:11;;;;;;;22.45;14.15;;;;;;;15.56;34.43;100294.55;1819532;78;25592;-65
2021/04/10 09:50:45;;;;;;;25.08;14.13;;;;;;;15.33;34.88;100301.84;1819591;78;25794;-63
2021/04/10 09:53:22;;;;;;;22.60;13.75;;;;;;;15.41;35.58;100302.84;1819366;78;25607;-65
2021/04/10 09:56:03;;;;;;;22.73;14.65;;;;;;;15.48;35.40;100305.23;1819552;78;25311;-63
2021/04/10 09:58:37;;;;;;;27.77;15.05;;;;;;;15.68;35.89;100300.80;1818550;78;25476;-63
2021/04/10 10:01:08;;;;;;;22.98;13.93;;;;;;;15.75;35.21;100304.86;1819677;78;25264;-63
2021/04/10 10:03:35;;;;;;;23.95;14.05;;;;;;;15.72;35.55;100296.02;1819618;78;26702;-64
2021/04/10 10:06:04;;;;;;;21.93;13.35;;;;;;;15.74;36.38;100294.53;1819228;78;25576;-63
2021/04/10 10:08:33;;;;;;;22.00;13.60;;;;;;;15.97;36.10;100299.50;1787986;78;25513;-64
2021/04/10 10:11:07;;;;;;;24.87;14.30;;;;;;;15.98;34.64;100294.28;1809531;78;25578;-63
2021/04/10 10:13:38;;;;;;;24.23;13.78;;;;;;;15.97;35.49;100292.68;1785960;80;25948;-62
2021/04/10 10:16:06;;;;;;;22.45;13.68;;;;;;;16.09;34.76;100295.39;1785753;80;25757;-63
2021/04/10 10:18:42;;;;;;;19.98;12.70;;;;;;;16.12;34.76;100296.05;1781725;80;25370;-63
2021/04/10 10:21:23;;;;;;;24.77;14.07;;;;;;;16.17;35.11;100296.38;1786063;80;25540;-63
2021/04/10 10:23:58;;;;;;;21.75;13.22;;;;;;;16.18;34.98;100302.07;1786474;80;25703;-63
2021/04/10 10:26:41;;;;;;;23.38;14.45;;;;;;;16.04;34.47;100299.16;1787161;80;25448;-63
2021/04/10 10:29:13;;;;;;;22.70;13.43;;;;;;;16.02;35.12;100301.98;1787253;80;26930;-63
2021/04/10 10:31:51;;;;;;;21.02;14.15;;;;;;;16.28;35.53;100300.21;1787228;80;25264;-63
2021/04/10 10:34:22;;;;;;;23.60;13.85;;;;;;;16.41;34.31;100301.76;1787017;80;25234;-65
2021/04/10 10:37:44;;;;;;;20.45;14.20;;;;;;;16.39;34.41;100297.19;1794881;77;25432;-64
2021/04/10 10:40:24;;;;;;;22.25;13.72;;;;;;;16.73;34.74;100286.78;1812898;77;25228;-63
2021/04/10 10:43:06;;;;;;;19.57;13.03;;;;;;;17.72;34.81;100288.20;1817088;79;26598;-63
2021/04/10 10:45:49;;;;;;;26.85;14.50;;;;;;;18.37;33.35;100295.03;1820185;78;25462;-63
2021/04/10 10:48:26;;;;;;;27.45;15.53;;;;;;;18.89;32.50;100294.81;1821032;78;25309;-63
2021/04/10 10:51:00;;;;;;;22.27;15.43;;;;;;;19.40;31.30;100290.34;1821081;78;25260;-64
2021/04/10 10:53:40;;;;;;;21.60;14.95;;;;;;;19.46;31.18;100290.81;1812090;78;25019;-65
2021/04/10 10:56:15;;;;;;;22.50;14.23;;;;;;;19.53;29.70;100299.95;1820706;78;26589;-64
2021/04/10 10:58:49;;;;;;;21.30;13.68;;;;;;;19.50;30.32;100280.11;1817057;78;25608;-63
2021/04/10 11:01:33;;;;;;;22.75;14.18;;;;;;;19.59;29.93;100288.08;1800878;78;25552;-63
2021/04/10 11:04:05;;;;;;;19.82;13.25;;;;;;;19.74;29.36;100296.74;1763083;81;25530;-63
2021/04/10 11:06:39;;;;;;;19.60;13.20;;;;;;;19.75;29.69;100290.66;1762154;81;25300;-63
2021/04/10 11:09:11;;;;;;;20.48;13.05;;;;;;;19.80;29.96;100287.59;1759720;81;26230;-64
2021/04/10 11:11:44;;;;;;;17.52;12.60;;;;;;;19.85;29.80;100286.48;1765440;78;25316;-65
2021/04/10 11:14:24;;;;;;;21.75;14.10;;;;;;;19.78;29.47;100289.92;1794535;80;25501;-64
2021/04/10 11:16:54;;;;;;;21.52;14.33;;;;;;;19.47;28.64;100286.92;1794607;80;25477;-63
2021/04/10 11:19:38;;;;;;;19.95;13.48;;;;;;;19.25;28.50;100288.55;1794616;80;25544;-62
2021/04/10 11:22:16;;;;;;;17.25;13.40;;;;;;;18.93;29.20;100282.73;1851307;77;25516;-63
2021/04/10 11:24:48;;;;;;;20.02;13.05;;;;;;;18.70;28.31;100284.67;1822173;78;25331;-63
2021/04/10 11:27:21;;;;;;;18.27;12.95;;;;;;;18.31;28.67;100289.62;1809692;78;25790;-64
2021/04/10 11:30:00;;;;;;;22.13;14.03;;;;;;;18.04;29.19;100279.90;1807704;78;25453;-63
2021/04/10 11:32:43;;;;;;;21.75;14.60;;;;;;;17.99;29.61;100277.45;1805871;78;25502;-64
2021/04/10 11:35:23;;;;;;;20.50;12.78;;;;;;;17.92;29.15;100272.62;1797880;77;25552;-63
2021/04/10 11:37:53;;;;;;;19.20;13.48;;;;;;;17.74;29.30;100284.53;1824546;77;25630;-64
2021/04/10 11:40:32;;;;;;;20.40;12.78;;;;;;;17.58;29.70;100277.52;1832612;77;26651;-63
2021/04/10 11:43:02;;;;;;;18.90;12.03;;;;;;;17.58;29.85;100272.05;1845749;77;25629;-64
2021/04/10 11:45:41;;;;;;;16.57;12.40;;;;;;;17.66;30.39;100284.73;1822215;77;25638;-64
2021/04/10 11:48:13;;;;;;;21.10;13.40;;;;;;;17.66;30.01;100270.48;1821989;78;25602;-65
2021/04/10 11:50:44;;;;;;;20.10;12.82;;;;;;;17.65;29.41;100265.36;1817854;77;25557;-64
2021/04/10 11:53:39;;;;;;;18.82;12.45;;;;;;;17.56;29.65;100266.94;1813733;79;25764;-64
2021/04/10 11:56:31;;;;;;;16.35;11.95;;;;;;;17.47;29.11;100268.50;1813958;79;25583;-64
2021/04/10 11:59:09;;;;;;;18.82;12.65;;;;;;;17.45;29.16;100262.60;1813907;79;25411;-64
2021/04/10 12:01:42;;;;;;;19.67;12.55;;;;;;;17.40;29.42;100266.98;1814041;79;25389;-63
2021/04/10 12:04:09;;;;;;;16.42;12.03;;;;;;;17.33;29.80;100259.41;1810825;79;25259;-64
2021/04/10 12:06:38;;;;;;;16.35;11.63;;;;;;;17.33;29.98;100262.14;1818024;78;26825;-64
2021/04/10 12:09:13;;;;;;;14.78;10.95;;;;;;;17.32;30.01;100264.64;1810914;78;25560;-64
2021/04/10 12:11:42;;;;;;;18.67;11.68;;;;;;;17.31;30.39;100260.31;1804824;77;25608;-64
2021/04/10 12:14:12;;;;;;;17.55;12.30;;;;;;;17.35;30.21;100263.94;1789557;80;25458;-64
2021/04/10 12:16:40;;;;;;;18.55;12.25;;;;;;;17.34;29.03;100269.76;1790006;80;25262;-64
2021/04/10 12:19:08;;;;;;;18.35;11.78;;;;;;;17.27;29.41;100258.66;1794213;78;25694;-64
2021/04/10 12:21:36;;;;;;;;;;;;;;;17.28;29.62;100262.41;1797682;78;25546;-63
2021/04/10 12:24:03;;;;;;;19.62;11.93;;;;;;;17.24;28.90;100256.64;1822091;78;25339;-63
2021/04/10 12:26:33;;;;;;;18.92;13.53;;;;;;;17.20;29.57;100247.54;1794379;78;25415;-63
2021/04/10 12:28:59;;;;;;;19.20;12.70;;;;;;;17.16;29.37;100256.47;1796499;78;25576;-62
2021/04/10 12:31:25;;;;;;;17.42;11.95;;;;;;;17.10;29.54;100250.27;1790401;78;27973;-63
2021/04/10 12:33:52;;;;;;;16.23;11.30;;;;;;;17.08;29.90;100247.88;1788031;80;25657;-63
2021/04/10 12:36:18;;;;;;;16.32;12.03;;;;;;;17.05;29.96;100245.85;1788896;80;25394;-64
2021/04/10 12:38:46;;;;;;;18.07;12.63;;;;;;;17.05;29.72;100250.53;1789219;80;25410;-64
2021/04/10 12:41:12;;;;;;;18.65;12.53;;;;;;;17.02;29.59;100261.58;1789118;80;25437;-62
2021/04/10 12:43:39;;;;;;;17.00;12.25;;;;;;;16.97;29.50;100258.56;1790970;78;25786;-63
2021/04/10 12:46:07;;;;;;;18.75;11.78;;;;;;;16.96;29.63;100246.03;1820087;78;25514;-63
2021/04/10 12:48:34;;;;;;;14.98;11.57;;;;;;;16.93;29.67;100241.27;1820563;78;25565;-64
2021/04/10 12:51:06;;;;;;;17.62;11.18;;;;;;;16.88;30.00;100246.22;1820834;78;25497;-63
2021/04/10 12:53:35;;;;;;;19.45;12.50;;;;;;;16.87;29.92;100237.79;1792067;78;25473;-64
2021/04/10 12:56:02;;;;;;;19.80;12.55;;;;;;;16.87;30.60;100239.16;1821678;78;25678;-66
2021/04/10 12:58:30;;;;;;;22.55;12.80;;;;;;;16.90;30.74;100236.51;1821260;78;25625;-66
2021/04/10 13:00:56;;;;;;;18.87;11.28;;;;;;;16.96;30.12;100242.52;1821571;78;25414;-66
2021/04/10 13:03:24;;;;;;;18.85;12.37;;;;;;;17.01;30.84;100234.61;1821475;78;25314;-67
2021/04/10 13:05:52;;;;;;;16.57;11.53;;;;;;;17.09;30.63;100238.52;1791795;78;25676;-66
2021/04/10 13:08:19;;;;;;;22.13;12.15;;;;;;;17.07;29.70;100244.91;1791866;78;25689;-66
2021/04/10 13:10:45;;;;;;;18.57;12.28;;;;;;;17.00;30.39;100242.02;1821395;78;25404;-66
2021/04/10 13:13:12;;;;;;;19.25;10.28;;;;;;;16.97;30.35;100239.44;1821228;78;25307;-66
2021/04/10 13:15:38;;;;;;;16.85;11.10;;;;;;;16.92;30.35;100243.77;1821460;78;25300;-67
2021/04/10 13:18:06;;;;;;;14.63;10.50;;;;;;;16.85;30.24;100244.97;1821552;78;25281;-68
2021/04/10 13:20:33;;;;;;;14.15;10.70;;;;;;;16.77;29.85;100248.08;1821142;78;26323;-66
2021/04/10 13:23:01;;;;;;;13.95;9.98;;;;;;;16.67;29.92;100245.06;1821487;78;25530;-65
2021/04/10 13:25:28;;;;;;;13.50;10.08;;;;;;;16.60;30.11;100234.74;1821472;78;25527;-67
2021/04/10 13:27:56;;;;;;;13.70;10.25;;;;;;;16.55;30.29;100248.11;1821176;78;25467;-67
2021/04/10 13:30:24;;;;;;;12.73;9.78;;;;;;;16.47;30.49;100242.23;1821700;78;25257;-67
2021/04/10 13:32:51;;;;;;;13.48;9.90;;;;;;;16.39;30.71;100250.00;1821502;78;26677;-64
2021/04/10 13:35:19;;;;;;;15.18;10.03;;;;;;;16.33;30.52;100242.65;1821234;78;25686;-64
2021/04/10 13:37:47;;;;;;;16.12;9.63;;;;;;;16.25;30.26;100245.74;1821566;78;25439;-65
2021/04/10 13:40:15;;;;;;;14.90;9.05;;;;;;;16.18;30.54;100248.86;1816653;77;25471;-65
2021/04/10 13:42:41;;;;;;;16.97;9.48;;;;;;;16.13;30.86;100247.75;1804793;77;25458;-65
2021/04/10 13:45:10;;;;;;;18.45;9.85;;;;;;;16.09;30.95;100251.74;1789049;80;25697;-65
2021/04/10 13:47:36;;;;;;;14.98;9.98;;;;;;;16.06;31.33;100251.85;1789038;80;25507;-65
2021/04/10 13:50:05;;;;;;;14.15;9.63;;;;;;;16.05;31.47;100248.89;1788904;80;25470;-65
2021/04/10 13:52:32;;;;;;;15.65;9.80;;;;;;;16.08;31.63;100256.18;1784717;80;25299;-65
2021/04/10 13:54:58;;;;;;;14.85;9.50;;;;;;;16.08;31.59;100260.27;1789222;80;25484;-65
2021/04/10 13:57:27;;;;;;;14.78;9.65;;;;;;;16.08;31.79;100252.09;1788861;80;25791;-65
2021/04/10 13:59:54;;;;;;;15.38;10.65;;;;;;;16.08;31.59;100247.41;1788543;80;25349;-65
2021/04/10 14:02:25;;;;;;;14.68;10.25;;;;;;;16.09;31.24;100244.92;1789105;80;25249;-65
2021/04/10 14:05:03;;;;;;;14.58;10.00;;;;;;;16.07;30.97;100254.00;1788806;80;25335;-66
2021/04/10 14:07:34;;;;;;;16.02;10.30;;;;;;;16.04;31.12;100243.23;1789271;80;25265;-66
2021/04/10 14:10:04;;;;;;;12.58;9.25;;;;;;;16.05;31.21;100242.64;1788952;80;25732;-65
2021/04/10 14:12:31;;;;;;;;;;;;;;;16.05;31.35;100247.52;1762890;80;25459;-65
2021/04/10 14:14:58;;;;;;;13.48;8.38;;;;;;;16.05;31.09;100244.80;1789199;80;25311;-65
2021/04/10 14:17:25;;;;;;;15.15;9.58;;;;;;;16.01;31.05;100250.73;1789093;80;25240;-65
2021/04/10 14:19:54;;;;;;;14.95;9.90;;;;;;;15.98;31.26;100251.42;1788947;80;25410;-65
2021/04/10 14:22:22;;;;;;;14.17;9.60;;;;;;;15.97;30.99;100244.95;1791393;80;25690;-65
2021/04/10 14:24:49;;;;;;;13.88;9.25;;;;;;;15.93;31.28;100246.21;1792088;80;25416;-65
2021/04/10 14:27:16;;;;;;;13.95;10.03;;;;;;;15.95;31.38;100254.05;1791921;80;25303;-65
2021/04/10 14:29:43;;;;;;;16.30;9.73;;;;;;;15.96;31.49;100248.25;1792213;80;25316;-65
2021/04/10 14:32:12;;;;;;;14.35;9.53;;;;;;;15.98;31.31;100254.73;1792226;80;25329;-65
2021/04/10 14:34:40;;;;;;;14.28;9.40;;;;;;;15.99;31.48;100249.51;1792008;80;25764;-65
2021/04/10 14:37:07;;;;;;;14.80;9.40;;;;;;;16.00;31.51;100252.44;1792168;80;25690;-65
2021/04/10 14:39:34;;;;;;;13.32;9.63;;;;;;;16.00;31.45;100253.80;1792249;80;25266;-65
2021/04/10 14:42:02;;;;;;;13.38;9.83;;;;;;;16.01;31.75;100250.73;1791696;80;25251;-65
2021/04/10 14:44:30;;;;;;;15.43;10.18;;;;;;;16.00;31.69;100247.77;1792198;80;25554;-65
2021/04/10 14:46:57;;;;;;;13.93;9.00;;;;;;;15.98;31.59;100247.33;1792065;80;25851;-65
2021/04/10 14:49:23;;;;;;;13.88;9.88;;;;;;;15.96;31.73;100242.80;1797127;78;25452;-65
2021/04/10 14:51:50;;;;;;;13.30;9.15;;;;;;;15.96;31.90;100246.10;1804291;78;25207;-65
2021/04/10 14:54:18;;;;;;;15.45;9.10;;;;;;;15.96;31.84;100246.10;1804977;78;25303;-65
2021/04/10 14:56:44;;;;;;;12.78;8.40;;;;;;;15.94;32.12;100240.98;1797052;78;25474;-65
2021/04/10 14:59:12;;;;;;;16.20;9.35;;;;;;;15.94;32.26;100245.08;1791699;80;25704;-65
2021/04/10 15:01:40;;;;;;;;;;;;;;;15.92;32.16;100238.38;1794301;80;25510;-65
2021/04/10 15:04:07;;;;;;;12.23;8.98;;;;;;;15.91;32.21;100241.68;1791148;80;25455;-65
2021/04/10 15:06:33;;;;;;;15.20;9.30;;;;;;;15.87;32.33;100233.97;1791462;80;25528;-65
2021/04/10 15:09:00;;;;;;;13.13;8.75;;;;;;;15.86;32.51;100238.61;1791613;80;25503;-63
2021/04/10 15:11:27;;;;;;;13.98;8.65;;;;;;;15.89;32.84;100242.59;1791672;80;28068;-62
2021/04/10 15:13:58;;;;;;;11.15;7.65;;;;;;;15.90;33.29;100242.80;1792200;80;25240;-64
2021/04/10 15:16:34;;;;;;;14.30;7.67;;;;;;;15.90;33.44;100245.53;1792159;80;25536;-64
2021/04/10 15:19:06;;;;;;;21.93;10.53;;;;;;;15.91;33.87;100243.05;1791902;80;25458;-64
2021/04/10 15:21:34;;;;;;;46.08;25.95;;;;;;;15.90;33.84;100244.17;1791418;80;25635;-64
2021/04/10 15:24:02;;;;;;;18.62;12.35;;;;;;;15.91;34.15;100248.50;1789198;80;26118;-65
2021/04/10 15:26:31;;;;;;;9.85;6.95;;;;;;;15.90;34.34;100248.27;1788648;80;25529;-64
2021/04/10 15:28:58;;;;;;;10.75;6.78;;;;;;;15.88;34.81;100241.00;1794145;78;25239;-65
2021/04/10 15:31:26;;;;;;;8.30;6.30;;;;;;;15.86;34.82;100235.10;1787495;80;26224;-65
2021/04/10 15:33:57;;;;;;;10.48;6.45;;;;;;;15.83;34.60;100246.70;1787750;80;25592;-64
2021/04/10 15:36:28;;;;;;;9.95;6.37;;;;;;;15.81;34.73;100238.86;1790122;78;27070;-64
2021/04/10 15:38:55;;;;;;;13.32;5.90;;;;;;;15.81;34.95;100242.95;1800211;78;25485;-64
2021/04/10 15:41:23;;;;;;;10.05;5.85;;;;;;;15.80;35.24;100241.93;1788671;80;25594;-64
2021/04/10 15:43:50;;;;;;;10.90;6.00;;;;;;;15.79;35.32;100244.45;1788942;80;25353;-63
2021/04/10 15:46:17;;;;;;;14.55;6.75;;;;;;;15.77;35.71;100232.52;1791198;77;25743;-63
2021/04/10 15:48:45;;;;;;;15.88;8.88;;;;;;;15.76;35.75;100236.38;1819610;78;25737;-63
2021/04/10 15:51:13;;;;;;;16.57;9.10;;;;;;;15.74;35.90;100237.27;1788505;80;25699;-63
2021/04/10 15:53:40;;;;;;;15.72;8.35;;;;;;;15.72;36.15;100237.41;1792706;77;25566;-63
2021/04/10 15:56:08;;;;;;;15.93;8.65;;;;;;;15.67;36.29;100239.21;1803929;77;25902;-64
2021/04/10 15:58:36;;;;;;;21.82;12.33;;;;;;;15.64;36.69;100233.08;1787883;80;25600;-63
2021/04/10 16:01:04;;;;;;;44.05;25.70;;;;;;;15.61;36.78;100239.80;1788300;80;25840;-63
2021/04/10 16:03:31;;;;;;;27.85;13.45;;;;;;;15.56;37.17;100236.75;1805034;77;25548;-63
2021/04/10 16:05:58;;;;;;;18.20;9.38;;;;;;;15.52;37.43;100235.05;1824234;77;25597;-63
2021/04/10 16:08:24;;;;;;;12.43;7.17;;;;;;;15.48;37.54;100238.45;1793056;77;25616;-63
2021/04/10 16:10:51;;;;;;;14.90;7.45;;;;;;;15.44;37.62;100236.75;1815410;77;25893;-63
2021/04/10 16:13:19;;;;;;;15.80;8.03;;;;;;;15.39;37.69;100235.62;1822674;77;25747;-64
2021/04/10 16:15:48;;;;;;;13.25;8.43;;;;;;;15.32;37.56;100234.83;1814400;77;25677;-64
2021/04/10 16:18:14;;;;;;;17.67;8.83;;;;;;;15.27;37.47;100234.52;1818935;77;25553;-64
2021/04/10 16:20:41;;;;;;;13.70;8.45;;;;;;;15.21;37.80;100235.88;1809067;77;25685;-64
2021/04/10 16:23:08;;;;;;;11.73;7.50;;;;;;;15.16;37.96;100238.83;1807961;77;25693;-64
2021/04/10 16:25:35;;;;;;;11.33;6.97;;;;;;;15.11;38.20;100245.29;1819117;77;26156;-64
2021/04/10 16:28:01;;;;;;;10.53;6.42;;;;;;;15.05;38.64;100241.77;1823524;77;25627;-64
2021/04/10 16:30:29;;;;;;;10.65;6.50;;;;;;;14.99;38.72;100247.23;1815963;77;25628;-64
2021/04/10 16:32:57;;;;;;;16.50;7.95;;;;;;;14.94;38.83;100247.66;1827096;77;25266;-65
2021/04/10 16:35:27;;;;;;;14.45;7.30;;;;;;;14.88;38.89;100244.14;1821618;78;25301;-64
2021/04/10 16:37:55;;;;;;;14.07;6.72;;;;;;;14.84;39.46;100250.05;1821396;78;26647;-66
2021/04/10 16:40:28;;;;;;;14.87;8.53;;;;;;;14.78;40.14;100252.20;1811695;78;25613;-59
2021/04/10 16:42:54;;;;;;;25.23;13.10;;;;;;;14.74;40.35;100256.72;1808492;78;25555;-62
2021/04/10 16:45:21;;;;;;;27.40;13.03;;;;;;;14.69;40.40;100257.75;1807731;78;25998;-63
2021/04/10 16:47:49;;;;;;;17.05;8.35;;;;;;;14.65;40.34;100255.45;1809222;78;25438;-63
2021/04/10 16:50:17;;;;;;;14.68;6.83;;;;;;;14.60;40.41;100259.75;1800425;78;25742;-63
2021/04/10 16:52:45;;;;;;;25.30;13.50;;;;;;;14.56;40.46;100262.91;1798625;78;25502;-63
2021/04/10 16:55:14;;;;;;;19.82;11.12;;;;;;;14.49;40.17;100260.73;1788826;80;25340;-62
2021/04/10 16:57:41;;;;;;;73.25;37.23;;;;;;;14.44;40.74;100253.32;1789132;80;25458;-57
2021/04/10 17:00:14;;;;;;;57.58;30.90;;;;;;;14.39;40.79;100259.80;1813820;78;25266;-58
2021/04/10 17:02:40;;;;;;;50.48;25.70;;;;;;;14.33;40.92;100263.84;1817788;78;25703;-58
2021/04/10 17:05:09;;;;;;;28.70;13.98;;;;;;;14.26;41.27;100261.66;1789069;80;25506;-58
2021/04/10 17:07:35;;;;;;;17.15;10.88;;;;;;;14.20;41.56;100269.24;1789053;80;25354;-58
2021/04/10 17:10:05;;;;;;;48.08;24.55;;;;;;;14.14;41.82;100265.70;1792443;78;25458;-58
2021/04/10 17:12:31;;;;;;;46.80;24.23;;;;;;;14.05;41.49;100270.42;1804256;78;25236;-59
2021/04/10 17:14:58;;;;;;;58.65;29.63;;;;;;;13.96;41.42;100265.85;1789130;80;25783;-61
2021/04/10 17:17:24;;;;;;;60.80;34.88;;;;;;;13.91;41.86;100278.28;1800988;77;25569;-58
2021/04/10 17:19:51;;;;;;;60.43;32.25;;;;;;;13.86;42.09;100277.67;1798012;78;25598;-58
2021/04/10 17:22:18;;;;;;;62.43;33.63;;;;;;;13.79;42.56;100284.98;1802173;77;25482;-57
2021/04/10 17:24:44;;;;;;;36.30;20.02;;;;;;;13.71;42.42;100278.50;1811014;78;25527;-59
2021/04/10 17:27:11;;;;;;;80.07;40.33;;;;;;;13.66;42.52;100281.41;1821457;78;25734;-59
2021/04/10 17:29:38;;;;;;;98.85;51.40;;;;;;;13.61;42.67;100293.27;1789778;78;25318;-58
2021/04/10 17:32:06;;;;;;;81.30;43.33;;;;;;;13.54;42.46;100285.41;1750838;81;25645;-57
2021/04/10 17:34:33;;;;;;;69.85;36.08;;;;;;;13.49;42.73;100299.19;1751176;81;25612;-59